createdAt,value
2018-08-03T00:00:26.518Z,10.47
2018-08-03T00:02:55.652Z,10.40
2018-08-03T00:05:23.716Z,11.17
2018-08-03T00:07:52.503Z,10.13
2018-08-03T00:10:21.050Z,10.30
2018-08-03T00:12:49.422Z,11.60
2018-08-03T00:15:17.933Z,11.10
2018-08-03T00:17:47.007Z,12.73
2018-08-03T00:20:15.683Z,9.77
2018-08-03T00:22:44.651Z,13.67
2018-08-03T00:25:13.176Z,14.70
2018-08-03T00:27:41.451Z,15.43
2018-08-03T00:30:10.196Z,14.00
2018-08-03T00:32:38.725Z,11.00
2018-08-03T00:35:06.891Z,10.40
2018-08-03T00:37:36.038Z,10.60
2018-08-03T00:40:04.513Z,13.87
2018-08-03T00:42:34.845Z,10.77
2018-08-03T00:45:03.674Z,12.97
2018-08-03T00:47:32.019Z,11.10
2018-08-03T00:50:00.600Z,10.80
2018-08-03T00:52:28.821Z,10.53
2018-08-03T00:54:57.376Z,11.00
2018-08-03T00:57:25.849Z,10.87
2018-08-03T00:59:55.752Z,11.13
2018-08-03T01:02:24.344Z,11.40
2018-08-03T01:04:52.648Z,12.17
2018-08-03T01:07:21.204Z,10.57
2018-08-03T01:09:49.846Z,11.80
2018-08-03T01:12:18.336Z,11.07
2018-08-03T01:14:47.134Z,11.00
2018-08-03T01:17:15.782Z,13.90
2018-08-03T01:19:44.503Z,10.80
2018-08-03T01:22:12.618Z,17.10
2018-08-03T01:24:40.926Z,13.17
2018-08-03T01:27:09.564Z,13.47
2018-08-03T01:29:38.223Z,14.03
2018-08-03T01:32:06.556Z,12.40
2018-08-03T01:34:34.995Z,11.70
2018-08-03T01:37:03.773Z,12.77
2018-08-03T01:39:32.323Z,14.07
2018-08-03T01:42:01.147Z,18.03
2018-08-03T01:44:30.461Z,12.33
2018-08-03T01:46:58.871Z,15.87
2018-08-03T01:49:27.362Z,13.80
2018-08-03T01:51:55.865Z,17.07
2018-08-03T01:54:24.328Z,15.60
2018-08-03T01:56:52.740Z,14.00
2018-08-03T01:59:22.638Z,17.23
2018-08-03T02:01:50.787Z,14.83
2018-08-03T02:04:19.353Z,13.93
2018-08-03T02:06:48.272Z,15.30
2018-08-03T02:09:16.680Z,15.53
2018-08-03T02:11:44.944Z,16.80
2018-08-03T02:14:13.804Z,17.93
2018-08-03T02:16:42.359Z,14.70
2018-08-03T02:19:10.369Z,16.63
2018-08-03T02:21:39.037Z,14.10
2018-08-03T02:24:07.865Z,14.90
2018-08-03T02:26:36.299Z,16.20
2018-08-03T02:29:05.256Z,13.37
2018-08-03T02:31:33.307Z,15.10
2018-08-03T02:34:01.495Z,14.43
2018-08-03T02:36:30.208Z,14.83
2018-08-03T02:38:58.548Z,12.70
2018-08-03T02:41:26.991Z,15.77
2018-08-03T02:43:55.955Z,15.30
2018-08-03T02:48:59.504Z,16.30
2018-08-03T02:51:28.374Z,14.87
2018-08-03T02:53:57.022Z,16.60
2018-08-03T02:56:25.651Z,15.43
2018-08-03T02:58:56.098Z,14.60
2018-08-03T03:01:24.936Z,15.60
2018-08-03T03:03:54.692Z,15.60
2018-08-03T03:06:24.356Z,14.40
2018-08-03T03:08:53.030Z,17.00
2018-08-03T03:11:21.463Z,13.00
2018-08-03T03:13:50.131Z,12.67
2018-08-03T03:16:18.218Z,12.87
2018-08-03T03:18:46.603Z,14.97
2018-08-03T03:21:15.378Z,16.47
2018-08-03T03:23:43.592Z,14.20
2018-08-03T03:26:11.994Z,13.57
2018-08-03T03:28:41.167Z,19.60
2018-08-03T03:31:09.705Z,18.37
2018-08-03T03:33:37.898Z,19.03
2018-08-03T03:36:06.853Z,13.97
2018-08-03T03:38:35.183Z,16.80
2018-08-03T03:41:03.386Z,16.57
2018-08-03T03:43:32.260Z,14.70
2018-08-03T03:46:00.707Z,15.53
2018-08-03T03:48:28.867Z,15.70
2018-08-03T03:50:57.608Z,17.30
2018-08-03T03:53:26.120Z,16.00
2018-08-03T03:55:54.491Z,25.83
2018-08-03T03:58:23.574Z,22.53
2018-08-03T04:00:52.049Z,16.93
2018-08-03T04:03:20.569Z,16.03
2018-08-03T04:05:50.143Z,16.97
2018-08-03T04:08:23.264Z,15.70
2018-08-03T04:11:09.672Z,18.83
2018-08-03T04:13:39.883Z,22.60
2018-08-03T04:16:08.737Z,18.03
2018-08-03T04:18:39.296Z,19.53
2018-08-03T04:21:08.069Z,17.33
2018-08-03T04:23:37.404Z,17.67
2018-08-03T04:26:06.077Z,18.63
2018-08-03T04:28:34.839Z,20.80
2018-08-03T04:31:03.840Z,19.00
2018-08-03T04:33:32.296Z,16.93
2018-08-03T04:36:00.927Z,22.90
2018-08-03T04:38:29.767Z,21.40
2018-08-03T04:40:58.302Z,23.00
2018-08-03T04:43:26.886Z,23.30
2018-08-03T04:45:55.870Z,23.40
2018-08-03T04:48:24.434Z,19.57
2018-08-03T04:50:52.931Z,23.70
2018-08-03T04:53:21.475Z,21.93
2018-08-03T04:55:49.565Z,19.00
2018-08-03T04:58:22.802Z,20.50
2018-08-03T05:01:00.071Z,20.60
2018-08-03T05:03:30.418Z,21.80
2018-08-03T05:06:02.790Z,17.03
2018-08-03T05:08:34.909Z,23.83
2018-08-03T05:11:07.124Z,23.57
2018-08-03T05:13:36.028Z,19.10
2018-08-03T05:16:04.253Z,19.83
2018-08-03T05:18:36.276Z,20.93
2018-08-03T05:21:09.492Z,19.90
2018-08-03T05:23:41.613Z,18.77
2018-08-03T05:26:12.932Z,24.30
2018-08-03T05:28:45.455Z,24.63
2018-08-03T05:31:13.602Z,24.67
2018-08-03T05:33:48.086Z,24.13
2018-08-03T05:36:18.306Z,21.33
2018-08-03T05:38:46.413Z,26.70
2018-08-03T05:41:18.991Z,26.60
2018-08-03T05:43:48.135Z,28.27
2018-08-03T05:46:20.077Z,29.40
2018-08-03T05:48:49.770Z,29.00
2018-08-03T05:51:19.302Z,28.57
2018-08-03T05:53:49.294Z,26.10
2018-08-03T05:56:17.632Z,27.30
2018-08-03T05:58:46.187Z,27.00
2018-08-03T06:01:21.337Z,25.83
2018-08-03T06:03:50.651Z,28.33
2018-08-03T06:06:19.578Z,29.87
2018-08-03T06:08:52.577Z,22.67
2018-08-03T06:11:22.907Z,27.47
2018-08-03T06:13:55.480Z,26.30
2018-08-03T06:16:26.161Z,28.63
2018-08-03T06:18:58.427Z,31.73
2018-08-03T06:21:26.849Z,22.97
2018-08-03T06:23:58.985Z,28.57
2018-08-03T06:26:28.799Z,28.87
2018-08-03T06:28:58.319Z,25.33
2018-08-03T06:31:32.274Z,24.93
2018-08-03T06:34:01.314Z,25.90
2018-08-03T06:36:29.986Z,28.83
2018-08-03T06:39:06.800Z,22.63
2018-08-03T06:41:35.303Z,28.20
2018-08-03T06:44:03.382Z,22.00
2018-08-03T06:46:35.443Z,20.20
2018-08-03T06:49:04.636Z,23.80
2018-08-03T06:51:38.389Z,24.23
2018-08-03T06:54:11.143Z,24.80
2018-08-03T06:56:39.657Z,23.30
2018-08-03T06:59:08.394Z,23.10
2018-08-03T07:01:42.395Z,25.27
2018-08-03T07:04:10.593Z,19.23
2018-08-03T07:06:38.624Z,17.67
2018-08-03T07:09:19.743Z,19.70
2018-08-03T07:11:48.361Z,14.07
2018-08-03T07:14:17.771Z,17.70
2018-08-03T07:16:50.113Z,13.20
2018-08-03T07:19:23.509Z,21.23
2018-08-03T07:22:05.212Z,17.00
2018-08-03T07:24:34.878Z,15.30
2018-08-03T07:27:04.566Z,16.57
2018-08-03T07:29:32.962Z,19.80
2018-08-03T07:32:04.993Z,18.87
2018-08-03T07:34:34.417Z,20.30
2018-08-03T07:37:02.887Z,17.77
2018-08-03T07:39:32.430Z,21.73
2018-08-03T07:42:01.208Z,19.50
2018-08-03T07:44:29.484Z,21.17
2018-08-03T07:46:57.776Z,18.70
2018-08-03T07:49:30.082Z,15.27
2018-08-03T07:52:03.647Z,18.50
2018-08-03T07:54:37.837Z,22.70
2018-08-03T07:57:07.395Z,23.90
2018-08-03T07:59:37.920Z,17.40
2018-08-03T08:02:07.487Z,17.50
2018-08-03T08:04:35.988Z,17.60
2018-08-03T08:07:08.381Z,19.93
2018-08-03T08:09:38.372Z,14.07
2018-08-03T08:12:06.981Z,12.13
2018-08-03T08:14:36.483Z,14.30
2018-08-03T08:17:04.676Z,11.70
2018-08-03T08:19:33.433Z,15.03
2018-08-03T08:22:02.694Z,11.80
2018-08-03T08:24:30.914Z,14.90
2018-08-03T08:26:59.212Z,16.60
2018-08-03T08:29:28.269Z,16.50
2018-08-03T08:31:56.796Z,14.90
2018-08-03T08:34:25.146Z,14.00
2018-08-03T08:36:53.623Z,17.77
2018-08-03T08:39:21.992Z,14.47
2018-08-03T08:41:50.279Z,11.73
2018-08-03T08:44:18.906Z,14.27
2018-08-03T08:46:47.188Z,13.80
2018-08-03T08:49:15.588Z,15.13
2018-08-03T08:51:45.433Z,12.87
2018-08-03T08:54:13.616Z,12.27
2018-08-03T08:56:42.678Z,9.93
2018-08-03T08:59:13.334Z,12.43
2018-08-03T09:01:41.570Z,9.97
2018-08-03T09:04:11.068Z,9.37
2018-08-03T09:06:40.360Z,11.27
2018-08-03T09:09:09.921Z,17.03
2018-08-03T09:11:38.527Z,20.23
2018-08-03T09:14:07.857Z,12.90
2018-08-03T09:16:36.790Z,13.53
2018-08-03T09:19:09.104Z,11.80
2018-08-03T09:21:37.653Z,9.33
2018-08-03T09:24:07.648Z,10.83
2018-08-03T09:26:37.177Z,12.33
2018-08-03T09:29:06.299Z,15.00
2018-08-03T09:31:34.910Z,12.17
2018-08-03T09:34:06.327Z,13.10
2018-08-03T09:36:35.485Z,11.20
2018-08-03T09:39:07.334Z,14.17
2018-08-03T09:41:35.900Z,13.03
2018-08-03T09:44:04.537Z,14.50
2018-08-03T09:46:33.610Z,14.83
2018-08-03T09:49:02.571Z,13.70
2018-08-03T09:51:30.912Z,10.70
2018-08-03T09:53:59.060Z,12.73
2018-08-03T09:56:27.432Z,13.00
2018-08-03T09:58:55.499Z,13.40
2018-08-03T10:01:24.116Z,15.10
2018-08-03T10:03:52.240Z,14.80
2018-08-03T10:06:20.450Z,13.43
2018-08-03T10:08:48.664Z,14.60
2018-08-03T10:11:19.280Z,10.67
2018-08-03T10:13:49.921Z,10.47
2018-08-03T10:16:18.270Z,14.97
2018-08-03T10:18:47.010Z,11.80
2018-08-03T10:21:17.019Z,11.37
2018-08-03T10:23:47.129Z,11.37
2018-08-03T10:26:16.897Z,14.00
2018-08-03T10:28:46.010Z,11.50
2018-08-03T10:31:14.531Z,13.03
2018-08-03T10:33:42.906Z,12.20
2018-08-03T10:36:11.005Z,9.93
2018-08-03T10:38:41.656Z,18.73
2018-08-03T10:41:10.789Z,14.43
2018-08-03T10:43:42.580Z,11.13
2018-08-03T10:46:12.018Z,12.40
2018-08-03T10:48:42.071Z,12.33
2018-08-03T10:51:14.831Z,15.00
2018-08-03T10:53:43.299Z,16.67
2018-08-03T10:56:11.869Z,11.20
2018-08-03T10:58:40.053Z,11.83
2018-08-03T11:01:08.782Z,14.40
2018-08-03T11:03:37.043Z,14.73
2018-08-03T11:06:05.212Z,14.50
2018-08-03T11:08:33.410Z,13.63
2018-08-03T11:11:02.083Z,22.60
2018-08-03T11:13:30.447Z,12.77
2018-08-03T11:15:58.879Z,15.20
2018-08-03T11:18:27.032Z,12.67
2018-08-03T11:20:55.575Z,17.63
2018-08-03T11:23:24.039Z,11.73
2018-08-03T11:25:52.164Z,13.87
2018-08-03T11:28:20.531Z,14.60
2018-08-03T11:30:49.358Z,12.77
2018-08-03T11:33:18.056Z,14.30
2018-08-03T11:35:46.166Z,13.50
2018-08-03T11:38:14.902Z,12.40
2018-08-03T11:40:43.024Z,17.43
2018-08-03T11:43:11.149Z,20.17
2018-08-03T11:45:40.151Z,15.93
2018-08-03T11:48:09.993Z,12.97
2018-08-03T11:50:39.294Z,13.07
2018-08-03T11:53:11.340Z,17.87
2018-08-03T11:55:40.319Z,13.83
2018-08-03T11:58:10.309Z,13.43
2018-08-03T12:00:38.843Z,14.10
2018-08-03T12:03:07.146Z,16.40
2018-08-03T12:05:36.788Z,12.30
2018-08-03T12:08:06.061Z,13.50
2018-08-03T12:10:34.284Z,19.00
2018-08-03T12:13:03.450Z,12.80
2018-08-03T12:15:31.989Z,15.73
2018-08-03T12:18:00.622Z,12.20
2018-08-03T12:20:29.020Z,14.73
2018-08-03T12:22:57.955Z,13.53
2018-08-03T12:25:26.128Z,12.73
2018-08-03T12:27:54.455Z,15.43
2018-08-03T12:30:23.122Z,13.50
2018-08-03T12:32:51.187Z,11.50
2018-08-03T12:35:19.356Z,13.10
2018-08-03T12:37:47.697Z,16.00
2018-08-03T12:40:16.099Z,11.57
2018-08-03T12:42:44.251Z,11.53
2018-08-03T12:45:12.663Z,11.10
2018-08-03T12:47:40.898Z,17.87
2018-08-03T12:50:09.068Z,17.03
2018-08-03T12:52:37.914Z,14.50
2018-08-03T12:55:06.222Z,15.80
2018-08-03T12:57:35.294Z,17.97
2018-08-03T13:00:08.837Z,10.87
2018-08-03T13:02:37.106Z,16.27
2018-08-03T13:05:05.646Z,15.37
2018-08-03T13:07:35.612Z,12.17
2018-08-03T13:10:04.428Z,16.70
2018-08-03T13:12:32.719Z,13.07
2018-08-03T13:15:01.045Z,12.27
2018-08-03T13:17:29.616Z,16.67
2018-08-03T13:19:57.937Z,15.97
2018-08-03T13:22:26.170Z,15.10
2018-08-03T13:24:55.801Z,14.63
2018-08-03T13:27:24.859Z,13.00
2018-08-03T13:29:53.080Z,15.47
2018-08-03T13:32:21.893Z,13.93
2018-08-03T13:34:50.384Z,11.30
2018-08-03T13:37:18.542Z,11.43
2018-08-03T13:39:51.261Z,12.20
2018-08-03T13:42:23.408Z,13.93
2018-08-03T13:44:58.203Z,14.30
2018-08-03T13:47:28.680Z,13.53
2018-08-03T13:49:59.834Z,16.63
2018-08-03T13:52:31.129Z,12.33
2018-08-03T13:55:06.176Z,13.07
2018-08-03T13:57:35.823Z,13.53
2018-08-03T14:00:07.084Z,13.30
2018-08-03T14:02:36.378Z,14.87
2018-08-03T14:05:09.619Z,13.67
2018-08-03T14:07:38.428Z,15.30
2018-08-03T14:10:11.718Z,22.10
2018-08-03T14:12:42.908Z,14.23
2018-08-03T14:15:12.277Z,17.17
2018-08-03T14:17:40.589Z,17.63
2018-08-03T14:20:09.523Z,16.43
2018-08-03T14:22:40.613Z,12.40
2018-08-03T14:25:09.267Z,12.63
2018-08-03T14:27:37.836Z,12.80
2018-08-03T14:30:07.637Z,15.07
2018-08-03T14:32:35.781Z,13.70
2018-08-03T14:35:04.606Z,12.30
2018-08-03T14:37:32.675Z,18.00
2018-08-03T14:40:02.810Z,18.10
2018-08-03T14:42:31.811Z,14.80
2018-08-03T14:44:59.943Z,19.87
2018-08-03T14:47:28.675Z,25.03
2018-08-03T14:49:58.287Z,13.80
2018-08-03T14:52:27.395Z,19.30
2018-08-03T14:54:55.839Z,16.63
2018-08-03T14:57:26.062Z,14.30
2018-08-03T14:59:54.559Z,13.70
2018-08-03T15:02:23.294Z,17.53
2018-08-03T15:04:51.434Z,12.10
2018-08-03T15:07:19.830Z,11.80
2018-08-03T15:09:48.095Z,14.10
2018-08-03T15:12:16.615Z,13.27
2018-08-03T15:14:44.861Z,15.63
2018-08-03T15:17:13.517Z,18.07
2018-08-03T15:19:42.442Z,14.20
2018-08-03T15:22:10.892Z,13.27
2018-08-03T15:24:38.994Z,21.07
2018-08-03T15:27:08.202Z,13.60
2018-08-03T15:29:36.729Z,10.70
2018-08-03T15:32:05.227Z,12.90
2018-08-03T15:34:33.347Z,9.83
2018-08-03T15:37:01.764Z,13.60
2018-08-03T15:39:30.289Z,17.03
2018-08-03T15:42:03.666Z,13.10
2018-08-03T15:44:32.103Z,12.73
2018-08-03T15:47:00.755Z,11.87
2018-08-03T15:49:29.013Z,14.77
2018-08-03T15:51:57.147Z,21.23
2018-08-03T15:54:25.444Z,16.53
2018-08-03T15:56:53.887Z,15.47
2018-08-03T15:59:22.035Z,15.03
2018-08-03T16:01:50.573Z,17.70
2018-08-03T16:04:20.078Z,11.00
2018-08-03T16:06:48.610Z,13.47
2018-08-03T16:09:17.445Z,11.37
2018-08-03T16:11:45.580Z,14.63
2018-08-03T16:14:13.717Z,12.63
2018-08-03T16:16:42.096Z,12.60
2018-08-03T16:19:10.426Z,10.70
2018-08-03T16:21:40.136Z,15.30
2018-08-03T16:24:08.552Z,10.53
2018-08-03T16:26:36.782Z,14.37
2018-08-03T16:29:04.952Z,10.53
2018-08-03T16:31:33.304Z,11.77
2018-08-03T16:34:01.437Z,14.43
2018-08-03T16:36:29.675Z,10.57
2018-08-03T16:38:58.003Z,13.00
2018-08-03T16:41:26.131Z,9.70
2018-08-03T16:46:28.640Z,15.03
2018-08-03T16:48:56.849Z,10.90
2018-08-03T16:51:25.014Z,12.13
2018-08-03T16:53:53.685Z,12.23
2018-08-03T16:56:21.782Z,9.47
2018-08-03T16:58:50.002Z,17.37
2018-08-03T17:01:18.423Z,9.63
2018-08-03T17:03:47.688Z,14.40
2018-08-03T17:06:16.704Z,10.03
2018-08-03T17:08:46.519Z,14.77
2018-08-03T17:11:17.375Z,11.07
2018-08-03T17:13:46.200Z,15.03
2018-08-03T17:16:16.279Z,14.77
2018-08-03T17:18:45.823Z,10.70
2018-08-03T17:21:14.835Z,14.73
2018-08-03T17:23:46.868Z,11.93
2018-08-03T17:26:17.099Z,10.83
2018-08-03T17:28:47.597Z,13.63
2018-08-03T17:31:18.819Z,10.47
2018-08-03T17:33:47.910Z,12.77
2018-08-03T17:36:17.157Z,14.23
2018-08-03T17:38:47.577Z,14.30
2018-08-03T17:41:17.171Z,11.63
2018-08-03T17:43:46.790Z,11.87
2018-08-03T17:46:17.638Z,10.67
2018-08-03T17:48:47.405Z,10.50
2018-08-03T17:51:17.080Z,15.17
2018-08-03T17:53:48.963Z,10.33
2018-08-03T17:56:19.008Z,13.17
2018-08-03T17:58:53.741Z,14.20
2018-08-03T18:01:23.067Z,12.70
2018-08-03T18:03:52.488Z,16.63
2018-08-03T18:06:24.472Z,11.20
2018-08-03T18:08:53.847Z,12.10
2018-08-03T18:11:22.884Z,11.30
2018-08-03T18:13:52.027Z,10.77
2018-08-03T18:16:22.501Z,9.70
2018-08-03T18:18:51.654Z,12.40
2018-08-03T18:21:20.950Z,18.00
2018-08-03T18:23:50.536Z,10.57
2018-08-03T18:26:20.011Z,14.10
2018-08-03T18:28:49.925Z,13.23
2018-08-03T18:31:19.747Z,12.67
2018-08-03T18:33:48.589Z,11.33
2018-08-03T18:36:17.632Z,14.83
2018-08-03T18:38:47.975Z,12.57
2018-08-03T18:41:23.988Z,11.67
2018-08-03T18:43:54.649Z,14.93
2018-08-03T18:46:26.118Z,14.20
2018-08-03T18:49:00.002Z,15.20
2018-08-03T18:51:30.494Z,14.43
2018-08-03T18:54:03.900Z,18.67
2018-08-03T18:56:33.491Z,17.63
2018-08-03T18:59:04.044Z,13.50
2018-08-03T19:01:40.793Z,13.27
2018-08-03T19:04:09.327Z,17.27
2018-08-03T19:06:40.880Z,13.53
2018-08-03T19:09:09.119Z,14.43
2018-08-03T19:11:42.235Z,19.33
2018-08-03T19:14:13.591Z,16.47
2018-08-03T19:16:42.295Z,15.27
2018-08-03T19:19:12.844Z,16.73
2018-08-03T19:21:46.480Z,11.20
2018-08-03T19:24:16.980Z,14.77
2018-08-03T19:26:46.525Z,17.17
2018-08-03T19:29:18.291Z,12.00
2018-08-03T19:31:49.124Z,13.43
2018-08-03T19:34:31.771Z,15.93
2018-08-03T19:37:03.984Z,14.37
2018-08-03T19:39:38.205Z,15.87
2018-08-03T19:42:21.267Z,15.07
2018-08-03T19:44:49.849Z,12.07
2018-08-03T19:47:24.206Z,21.53
2018-08-03T19:49:56.718Z,16.07
2018-08-03T19:52:28.442Z,14.87
2018-08-03T19:54:57.133Z,16.77
2018-08-03T19:57:25.491Z,19.77
2018-08-03T19:59:53.699Z,15.33
2018-08-03T20:02:22.369Z,16.73
2018-08-03T20:04:51.048Z,15.80
2018-08-03T20:07:19.364Z,19.30
2018-08-03T20:09:47.831Z,16.60
2018-08-03T20:12:17.582Z,16.57
2018-08-03T20:14:45.728Z,19.13
2018-08-03T20:17:13.790Z,19.93
2018-08-03T20:19:42.314Z,18.70
2018-08-03T20:22:15.688Z,15.60
2018-08-03T20:24:44.068Z,19.10
2018-08-03T20:27:12.969Z,17.80
2018-08-03T20:29:41.416Z,34.63
2018-08-03T20:32:09.721Z,15.93
2018-08-03T20:34:38.178Z,14.83
2018-08-03T20:37:06.546Z,16.80
2018-08-03T20:39:34.772Z,16.53
2018-08-03T20:42:03.878Z,12.13
2018-08-03T20:44:32.781Z,15.40
2018-08-03T20:47:01.360Z,18.93
2018-08-03T20:49:32.093Z,14.60
2018-08-03T20:52:00.703Z,13.07
2018-08-03T20:54:28.785Z,12.27
2018-08-03T20:56:57.921Z,18.60
2018-08-03T20:59:26.272Z,13.97
2018-08-03T21:01:55.489Z,23.60
2018-08-03T21:04:24.020Z,14.43
2018-08-03T21:06:52.106Z,13.03
2018-08-03T21:09:20.231Z,13.43
2018-08-03T21:11:48.934Z,12.17
2018-08-03T21:14:17.584Z,11.90
2018-08-03T21:16:45.824Z,13.83
2018-08-03T21:19:15.522Z,12.40
2018-08-03T21:21:44.211Z,11.53
2018-08-03T21:24:12.332Z,13.40
2018-08-03T21:26:41.931Z,12.77
2018-08-03T21:29:10.251Z,12.40
2018-08-03T21:31:38.467Z,12.80
2018-08-03T21:34:06.904Z,14.10
2018-08-03T21:36:35.049Z,13.00
2018-08-03T21:39:05.184Z,15.00
2018-08-03T21:41:34.147Z,12.33
2018-08-03T21:44:02.590Z,14.87
2018-08-03T21:46:30.879Z,15.63
2018-08-03T21:49:00.867Z,13.20
2018-08-03T21:51:29.142Z,13.77
2018-08-03T21:53:57.247Z,14.90
2018-08-03T21:56:27.631Z,13.73
2018-08-03T21:58:56.350Z,17.40
2018-08-03T22:01:25.413Z,18.47
2018-08-03T22:03:54.605Z,20.53
2018-08-03T22:06:23.496Z,14.87
2018-08-03T22:08:52.427Z,14.43
2018-08-03T22:11:21.259Z,15.93
2018-08-03T22:13:49.871Z,15.23
2018-08-03T22:16:17.936Z,15.33
2018-08-03T22:18:46.142Z,20.30
2018-08-03T22:21:14.529Z,15.33
2018-08-03T22:23:43.761Z,16.00
2018-08-03T22:26:11.895Z,15.90
2018-08-03T22:28:40.039Z,17.60
2018-08-03T22:31:08.599Z,17.03
2018-08-03T22:33:37.160Z,15.93
2018-08-03T22:36:05.645Z,17.00
2018-08-03T22:38:34.349Z,15.50
2018-08-03T22:41:03.044Z,15.90
2018-08-03T22:43:31.246Z,17.60
2018-08-03T22:45:59.267Z,14.57
2018-08-03T22:48:27.748Z,15.67
2018-08-03T22:50:56.473Z,16.63
2018-08-03T22:53:25.093Z,26.70
2018-08-03T22:55:53.211Z,15.27
2018-08-03T22:58:21.878Z,18.03
2018-08-03T23:00:50.139Z,16.20
2018-08-03T23:03:18.953Z,16.93
2018-08-03T23:05:47.070Z,18.70
2018-08-03T23:08:15.515Z,15.30
2018-08-03T23:10:43.510Z,17.00
2018-08-03T23:13:11.997Z,21.50
2018-08-03T23:15:40.153Z,16.80
2018-08-03T23:18:08.336Z,19.90
2018-08-03T23:20:37.099Z,19.90
2018-08-03T23:23:05.496Z,16.20
2018-08-03T23:25:33.806Z,16.93
2018-08-03T23:28:03.729Z,21.53
2018-08-03T23:30:32.271Z,15.90
2018-08-03T23:33:00.588Z,16.50
2018-08-03T23:35:29.541Z,22.60
2018-08-03T23:38:01.789Z,16.63
2018-08-03T23:40:30.277Z,17.03
2018-08-03T23:42:58.629Z,15.20
2018-08-03T23:45:27.169Z,25.30
2018-08-03T23:47:55.895Z,18.33
2018-08-03T23:50:26.624Z,16.30
2018-08-03T23:52:55.034Z,15.77
2018-08-03T23:55:23.482Z,19.53
2018-08-03T23:57:52.414Z,17.87
